A21 weather

Preston Field - Blair Howe
Western Australia, Australia

Public forecast

Using degrees Celsius for public forecast. Weather courtesy of forecast.io.

Closest aviation weather report (METAR) to Preston Field - Blair Howe

Closest report is Perth Jandakot Airport, 56.1 nm (103.8 km) N. Retrieved 2019/12/12 18:30 UTC (0 seconds ago):

YPJT 121830Z AUTO 09012KT 9999 // NCD 27/06 Q1015 RF000/0000

Closest aviation forecast (TAF) to Preston Field - Blair Howe

Closest forecast is Perth Jandakot Airport, 56.1 nm (103.8 km) N. Retrieved 2019/12/12 18:00 UTC (22 minutes ago):

TAF YPJT 121706Z 1218/1312 08015G25KT CAVOK FM122300 04014G24KT CAVOK FM130100 02013KT CAVOK FM130500 23013KT CAVOK